createdAt,value
2019-02-07T00:02:02.198Z,95483.94
2019-02-07T00:04:28.680Z,95484.66
2019-02-07T00:06:55.076Z,95482.36
2019-02-07T00:09:21.534Z,95475.22
2019-02-07T00:11:47.862Z,95481.91
2019-02-07T00:14:14.279Z,95475.68
2019-02-07T00:16:40.614Z,95474.22
2019-02-07T00:19:07.104Z,95474.05
2019-02-07T00:21:33.396Z,95477.53
2019-02-07T00:24:02.567Z,95477.53
2019-02-07T00:26:28.834Z,95473.68
2019-02-07T00:28:55.158Z,95476.64
2019-02-07T00:31:21.492Z,95479.47
2019-02-07T00:33:47.825Z,95476.91
2019-02-07T00:36:14.224Z,95478.27
2019-02-07T00:38:40.550Z,95477.19
2019-02-07T00:41:07.016Z,95471.13
2019-02-07T00:43:33.351Z,95478.27
2019-02-07T00:45:59.692Z,95471.59
2019-02-07T00:48:26.020Z,95468.67
2019-02-07T00:50:52.342Z,95464.33
2019-02-07T00:53:18.708Z,95464.70
2019-02-07T00:55:45.152Z,95455.91
2019-02-07T00:58:11.433Z,95459.77
2019-02-07T01:00:37.805Z,95462.08
2019-02-07T01:03:04.201Z,95461.62
2019-02-07T01:05:30.532Z,95460.66
2019-02-07T01:07:56.937Z,95458.14
2019-02-07T01:10:23.264Z,95458.20
2019-02-07T01:12:49.712Z,95452.91
2019-02-07T01:15:16.115Z,95450.98
2019-02-07T01:17:42.435Z,95447.39
2019-02-07T01:20:08.812Z,95445.48
2019-02-07T01:22:35.147Z,95450.59
2019-02-07T01:25:01.540Z,95451.16
2019-02-07T01:27:27.869Z,95455.02
2019-02-07T01:29:54.191Z,95449.11
2019-02-07T01:32:20.515Z,95449.25
2019-02-07T01:34:46.856Z,95453.14
2019-02-07T01:37:13.241Z,95452.86
2019-02-07T01:39:39.573Z,95448.58
2019-02-07T01:42:05.953Z,95454.05
2019-02-07T01:44:32.322Z,95453.38
2019-02-07T01:46:58.612Z,95454.34
2019-02-07T01:49:24.997Z,95449.89
2019-02-07T01:51:51.321Z,95447.50
2019-02-07T01:54:17.686Z,95453.55
2019-02-07T01:56:44.075Z,95449.05
2019-02-07T01:59:10.480Z,95453.81
2019-02-07T02:01:36.809Z,95451.58
2019-02-07T02:04:03.168Z,95458.09
2019-02-07T02:06:29.507Z,95450.95
2019-02-07T02:08:55.841Z,95450.84
2019-02-07T02:11:22.232Z,95452.06
2019-02-07T02:13:48.565Z,95451.32
2019-02-07T02:16:14.935Z,95451.23
2019-02-07T02:18:41.257Z,95453.63
2019-02-07T02:21:07.668Z,95450.78
2019-02-07T02:23:34.050Z,95447.26
2019-02-07T02:26:00.382Z,95441.03
2019-02-07T02:28:26.708Z,95451.40
2019-02-07T02:30:55.867Z,95447.34
2019-02-07T02:33:22.241Z,95449.59
2019-02-07T02:35:48.633Z,95449.05
2019-02-07T02:38:14.996Z,95448.02
2019-02-07T02:40:41.336Z,95453.70
2019-02-07T02:43:07.721Z,95449.64
2019-02-07T02:45:37.644Z,95451.55
2019-02-07T02:48:00.463Z,95453.45
2019-02-07T02:50:26.835Z,95451.72
2019-02-07T02:52:53.170Z,95456.61
2019-02-07T02:55:19.505Z,95452.91
2019-02-07T02:57:45.833Z,95455.62
2019-02-07T03:00:12.157Z,95455.16
2019-02-07T03:02:38.489Z,95449.93
2019-02-07T03:05:04.853Z,95450.84
2019-02-07T03:07:31.146Z,95456.16
2019-02-07T03:09:57.606Z,95463.41
2019-02-07T03:12:23.971Z,95465.98
2019-02-07T03:14:50.308Z,95459.89
2019-02-07T03:17:16.642Z,95464.83
2019-02-07T03:19:42.975Z,95466.48
2019-02-07T03:22:09.304Z,95470.34
2019-02-07T03:24:35.716Z,95473.30
2019-02-07T03:27:02.021Z,95477.15
2019-02-07T03:29:28.390Z,95481.02
2019-02-07T03:31:54.720Z,95479.52
2019-02-07T03:34:21.088Z,95481.27
2019-02-07T03:36:47.490Z,95483.17
2019-02-07T03:39:13.842Z,95479.19
2019-02-07T03:41:40.217Z,95484.45
2019-02-07T03:44:06.576Z,95489.14
2019-02-07T03:46:32.934Z,95482.25
2019-02-07T03:48:59.263Z,95477.81
2019-02-07T03:51:25.596Z,95484.75
2019-02-07T03:53:51.989Z,95487.91
2019-02-07T03:56:18.369Z,95482.97
2019-02-07T03:58:44.668Z,95482.88
2019-02-07T04:01:11.000Z,95482.55
2019-02-07T04:03:37.432Z,95481.72
2019-02-07T04:06:03.715Z,95481.26
2019-02-07T04:08:30.049Z,95482.38
2019-02-07T04:10:56.483Z,95483.08
2019-02-07T04:13:22.842Z,95479.55
2019-02-07T04:15:49.204Z,95475.23
2019-02-07T04:18:15.534Z,95477.52
2019-02-07T04:20:41.967Z,95478.89
2019-02-07T04:23:08.311Z,95482.27
2019-02-07T04:25:34.694Z,95471.70
2019-02-07T04:28:01.036Z,95470.69
2019-02-07T04:30:27.385Z,95476.48
2019-02-07T04:32:53.777Z,95469.62
2019-02-07T04:35:20.131Z,95474.47
2019-02-07T04:37:46.507Z,95479.77
2019-02-07T04:40:13.009Z,95472.97
2019-02-07T04:42:39.222Z,95476.87
2019-02-07T04:45:05.624Z,95476.28
2019-02-07T04:47:31.890Z,95479.84
2019-02-07T04:49:58.237Z,95472.73
2019-02-07T04:52:24.621Z,95473.34
2019-02-07T04:54:50.962Z,95474.05
2019-02-07T04:57:17.370Z,95475.11
2019-02-07T04:59:43.676Z,95462.36
2019-02-07T05:02:10.005Z,95468.34
2019-02-07T05:04:36.339Z,95468.06
2019-02-07T05:07:02.676Z,95461.55
2019-02-07T05:09:30.609Z,95463.21
2019-02-07T05:11:55.342Z,95468.02
2019-02-07T05:14:21.730Z,95465.72
2019-02-07T05:16:48.077Z,95460.80
2019-02-07T05:19:14.415Z,95463.63
2019-02-07T05:21:40.753Z,95464.45
2019-02-07T05:24:07.084Z,95464.43
2019-02-07T05:26:33.448Z,95460.34
2019-02-07T05:28:59.795Z,95462.34
2019-02-07T05:31:26.128Z,95464.45
2019-02-07T05:33:52.453Z,95466.88
2019-02-07T05:36:18.784Z,95462.09
2019-02-07T05:38:45.115Z,95461.20
2019-02-07T05:41:11.438Z,95458.16
2019-02-07T05:43:40.542Z,95460.00
2019-02-07T05:46:06.870Z,95460.15
2019-02-07T05:48:33.248Z,95466.72
2019-02-07T05:50:59.665Z,95471.20
2019-02-07T05:53:25.966Z,95470.30
2019-02-07T05:55:52.301Z,95459.42
2019-02-07T05:58:18.633Z,95463.99
2019-02-07T06:00:44.984Z,95457.78
2019-02-07T06:03:11.387Z,95457.33
2019-02-07T06:05:37.726Z,95454.75
2019-02-07T06:08:04.081Z,95457.23
2019-02-07T06:10:30.420Z,95450.33
2019-02-07T06:12:56.822Z,95450.94
2019-02-07T06:15:23.153Z,95449.42
2019-02-07T06:17:49.502Z,95446.70
2019-02-07T06:20:15.833Z,95450.73
2019-02-07T06:22:42.257Z,95451.56
2019-02-07T06:25:08.590Z,95461.20
2019-02-07T06:27:34.920Z,95461.64
2019-02-07T06:30:01.260Z,95461.28
2019-02-07T06:32:27.589Z,95466.95
2019-02-07T06:34:53.947Z,95464.38
2019-02-07T06:37:20.315Z,95468.02
2019-02-07T06:39:46.659Z,95470.84
2019-02-07T06:42:12.991Z,95469.09
2019-02-07T06:44:39.336Z,95473.92
2019-02-07T06:47:13.207Z,95480.28
2019-02-07T06:49:32.023Z,95487.30
2019-02-07T06:51:58.365Z,95492.12
2019-02-07T06:54:24.748Z,95491.71
2019-02-07T06:56:51.117Z,95499.73
2019-02-07T06:59:17.524Z,95504.52
2019-02-07T07:01:43.860Z,95501.90
2019-02-07T07:04:10.202Z,95510.05
2019-02-07T07:06:36.576Z,95509.23
2019-02-07T07:09:02.909Z,95512.64
2019-02-07T07:11:29.341Z,95507.48
2019-02-07T07:13:55.642Z,95515.44
2019-02-07T07:16:21.970Z,95511.34
2019-02-07T07:18:48.360Z,95506.55
2019-02-07T07:21:14.699Z,95503.74
2019-02-07T07:23:41.042Z,95508.80
2019-02-07T07:26:09.436Z,95505.50
2019-02-07T07:28:33.755Z,95500.59
2019-02-07T07:31:00.134Z,95504.13
2019-02-07T07:33:26.574Z,95497.31
2019-02-07T07:35:52.976Z,95492.05
2019-02-07T07:38:20.343Z,95495.80
2019-02-07T07:40:46.733Z,95495.47
2019-02-07T07:43:13.085Z,95490.89
2019-02-07T07:45:39.482Z,95497.35
2019-02-07T07:48:05.871Z,95501.59
2019-02-07T07:50:32.229Z,95506.28
2019-02-07T07:52:58.599Z,95510.34
2019-02-07T07:55:25.055Z,95507.44
2019-02-07T07:57:51.429Z,95511.82
2019-02-07T08:00:19.109Z,95520.02
2019-02-07T08:02:44.162Z,95520.03
2019-02-07T08:05:10.553Z,95518.40
2019-02-07T08:07:36.952Z,95509.58
2019-02-07T08:10:03.254Z,95507.70
2019-02-07T08:12:29.618Z,95510.28
2019-02-07T08:14:55.976Z,95515.44
2019-02-07T08:17:22.422Z,95509.23
2019-02-07T08:19:48.732Z,95514.05
2019-02-07T08:22:15.133Z,95509.47
2019-02-07T08:24:41.495Z,95495.25
2019-02-07T08:27:07.825Z,95514.05
2019-02-07T08:29:35.373Z,95518.48
2019-02-07T08:32:02.269Z,95523.20
2019-02-07T08:34:28.640Z,95516.28
2019-02-07T08:36:55.013Z,95507.45
2019-02-07T08:39:21.402Z,95510.77
2019-02-07T08:41:47.744Z,95514.05
2019-02-07T08:44:14.408Z,95506.39
2019-02-07T08:46:40.459Z,95499.81
2019-02-07T08:49:06.802Z,95510.50
2019-02-07T08:51:33.288Z,95512.25
2019-02-07T08:53:59.682Z,95506.15
2019-02-07T08:56:26.013Z,95503.06
2019-02-07T08:58:52.381Z,95501.20
2019-02-07T09:01:18.784Z,95501.08
2019-02-07T09:03:45.148Z,95502.48
2019-02-07T09:06:11.483Z,95507.41
2019-02-07T09:08:37.876Z,95501.30
2019-02-07T09:11:04.281Z,95504.84
2019-02-07T09:13:30.755Z,95508.25
2019-02-07T09:15:57.113Z,95513.42
2019-02-07T09:18:23.452Z,95512.37
2019-02-07T09:20:49.793Z,95508.23
2019-02-07T09:23:16.195Z,95510.36
2019-02-07T09:25:42.566Z,95513.64
2019-02-07T09:28:10.163Z,95516.01
2019-02-07T09:30:35.321Z,95526.91
2019-02-07T09:33:01.714Z,95519.55
2019-02-07T09:35:28.107Z,95522.11
2019-02-07T09:37:54.434Z,95520.11
2019-02-07T09:40:20.767Z,95521.65
2019-02-07T09:42:47.167Z,95518.82
2019-02-07T09:45:13.647Z,95516.38
2019-02-07T09:47:40.012Z,95515.80
2019-02-07T09:50:06.406Z,95511.31
2019-02-07T09:52:32.767Z,95509.06
2019-02-07T09:54:59.107Z,95507.89
2019-02-07T09:57:25.459Z,95514.11
2019-02-07T09:59:51.789Z,95503.08
2019-02-07T10:02:18.137Z,95498.84
2019-02-07T10:04:44.486Z,95508.34
2019-02-07T10:07:10.821Z,95500.70
2019-02-07T10:09:37.190Z,95493.91
2019-02-07T10:12:03.563Z,95486.96
2019-02-07T10:14:29.939Z,95488.47
2019-02-07T10:16:56.277Z,95482.48
2019-02-07T10:19:22.683Z,95484.50
2019-02-07T10:21:49.116Z,95478.25
2019-02-07T10:24:15.555Z,95477.89
2019-02-07T10:26:41.915Z,95477.09
2019-02-07T10:29:08.278Z,95477.05
2019-02-07T10:31:34.606Z,95467.44
2019-02-07T10:34:00.972Z,95466.73
2019-02-07T10:36:27.335Z,95466.03
2019-02-07T10:38:53.737Z,95461.69
2019-02-07T10:41:20.102Z,95457.46
2019-02-07T10:43:46.434Z,95454.88
2019-02-07T10:46:12.775Z,95451.23
2019-02-07T10:48:44.491Z,95451.93
2019-02-07T10:51:05.655Z,95449.34
2019-02-07T10:53:32.023Z,95453.94
2019-02-07T10:55:58.468Z,95449.45
2019-02-07T10:58:25.557Z,95450.05
2019-02-07T11:00:51.158Z,95453.69
2019-02-07T11:03:17.545Z,95443.47
2019-02-07T11:05:43.856Z,95437.02
2019-02-07T11:08:10.202Z,95437.95
2019-02-07T11:10:36.593Z,95437.02
2019-02-07T11:13:03.152Z,95429.37
2019-02-07T11:15:29.410Z,95429.01
2019-02-07T11:17:55.765Z,95423.12
2019-02-07T11:20:22.764Z,95419.57
2019-02-07T11:22:49.089Z,95414.00
2019-02-07T11:25:15.433Z,95410.88
2019-02-07T11:27:42.455Z,95405.27
2019-02-07T11:30:08.323Z,95403.16
2019-02-07T11:32:34.711Z,95397.30
2019-02-07T11:35:02.140Z,95398.80
2019-02-07T11:37:28.539Z,95394.92
2019-02-07T11:39:54.976Z,95396.25
2019-02-07T11:42:21.410Z,95398.08
2019-02-07T11:44:50.553Z,95396.22
2019-02-07T11:47:14.173Z,95388.70
2019-02-07T11:49:40.591Z,95391.69
2019-02-07T11:52:06.982Z,95387.09
2019-02-07T11:54:33.375Z,95382.64
2019-02-07T11:56:59.719Z,95380.88
2019-02-07T11:59:26.051Z,95369.77
2019-02-07T12:01:52.426Z,95375.31
2019-02-07T12:04:18.780Z,95374.52
2019-02-07T12:06:45.219Z,95370.81
2019-02-07T12:09:11.654Z,95368.02
2019-02-07T12:11:38.050Z,95373.18
2019-02-07T12:14:04.421Z,95373.19
2019-02-07T12:16:30.797Z,95372.11
2019-02-07T12:18:57.191Z,95374.30
2019-02-07T12:21:23.707Z,95374.23
2019-02-07T12:23:50.066Z,95375.84
2019-02-07T12:26:16.426Z,95377.14
2019-02-07T12:28:42.806Z,95377.72
2019-02-07T12:31:09.198Z,95371.00
2019-02-07T12:33:35.540Z,95365.03
2019-02-07T12:36:02.019Z,95358.00
2019-02-07T12:38:29.328Z,95358.25
2019-02-07T12:40:55.714Z,95354.02
2019-02-07T12:43:22.110Z,95354.37
2019-02-07T12:45:49.484Z,95345.49
2019-02-07T12:48:14.862Z,95349.27
2019-02-07T12:50:41.208Z,95346.58
2019-02-07T12:53:07.541Z,95345.32
2019-02-07T12:55:33.891Z,95349.56
2019-02-07T12:58:00.297Z,95350.23
2019-02-07T13:00:26.670Z,95349.63
2019-02-07T13:02:53.036Z,95355.16
2019-02-07T13:05:19.399Z,95346.61
2019-02-07T13:07:45.863Z,95350.59
2019-02-07T13:10:12.218Z,95345.21
2019-02-07T13:12:38.727Z,95338.60
2019-02-07T13:15:05.098Z,95344.23
2019-02-07T13:17:31.516Z,95338.85
2019-02-07T13:19:57.859Z,95336.19
2019-02-07T13:22:24.354Z,95333.79
2019-02-07T13:24:50.706Z,95329.80
2019-02-07T13:27:17.100Z,95329.34
2019-02-07T13:29:43.648Z,95331.10
2019-02-07T13:32:09.979Z,95327.54
2019-02-07T13:34:36.394Z,95326.76
2019-02-07T13:37:02.792Z,95327.11
2019-02-07T13:39:29.093Z,95328.05
2019-02-07T13:41:55.436Z,95326.60
2019-02-07T13:44:21.786Z,95322.88
2019-02-07T13:46:48.130Z,95328.63
2019-02-07T13:49:14.584Z,95323.70
2019-02-07T13:51:48.301Z,95331.50
2019-02-07T13:54:14.651Z,95327.44
2019-02-07T13:56:41.015Z,95328.41
2019-02-07T13:59:07.353Z,95326.80
2019-02-07T14:01:33.754Z,95336.39
2019-02-07T14:04:00.102Z,95335.59
2019-02-07T14:06:26.506Z,95331.67
2019-02-07T14:08:52.880Z,95332.29
2019-02-07T14:11:19.349Z,95330.42
2019-02-07T14:13:45.708Z,95329.91
2019-02-07T14:16:12.105Z,95330.17
2019-02-07T14:18:38.471Z,95330.78
2019-02-07T14:21:04.841Z,95323.70
2019-02-07T14:23:33.956Z,95329.84
2019-02-07T14:26:00.324Z,95325.72
2019-02-07T14:28:26.729Z,95332.18
2019-02-07T14:30:53.181Z,95321.95
2019-02-07T14:33:19.480Z,95320.80
2019-02-07T14:35:45.890Z,95318.21
2019-02-07T14:38:12.506Z,95325.97
2019-02-07T14:40:38.985Z,95317.74
2019-02-07T14:43:05.420Z,95318.79
2019-02-07T14:45:31.847Z,95318.54
2019-02-07T14:47:58.219Z,95322.16
2019-02-07T14:50:24.731Z,95312.33
2019-02-07T14:52:51.191Z,95312.11
2019-02-07T14:55:17.531Z,95312.90
2019-02-07T14:57:44.712Z,95311.03
2019-02-07T15:00:11.087Z,95317.53
2019-02-07T15:02:37.468Z,95318.32
2019-02-07T15:05:03.865Z,95324.46
2019-02-07T15:07:30.157Z,95323.38
2019-02-07T15:09:56.593Z,95319.80
2019-02-07T15:12:22.960Z,95309.92
2019-02-07T15:14:49.317Z,95318.72
2019-02-07T15:17:15.658Z,95313.87
2019-02-07T15:19:41.997Z,95318.97
2019-02-07T15:22:08.385Z,95310.39
2019-02-07T15:24:34.818Z,95309.59
2019-02-07T15:27:01.097Z,95308.13
2019-02-07T15:29:27.540Z,95306.51
2019-02-07T15:31:53.896Z,95303.56
2019-02-07T15:34:20.284Z,95307.69
2019-02-07T15:36:46.611Z,95307.26
2019-02-07T15:39:12.941Z,95310.64
2019-02-07T15:41:39.273Z,95310.42
2019-02-07T15:44:05.613Z,95310.06
2019-02-07T15:46:31.942Z,95307.62
2019-02-07T15:48:58.287Z,95301.30
2019-02-07T15:51:24.645Z,95298.92
2019-02-07T15:53:51.062Z,95299.64
2019-02-07T15:56:17.423Z,95292.86
2019-02-07T15:58:43.918Z,95299.56
2019-02-07T16:01:10.320Z,95296.33
2019-02-07T16:03:36.697Z,95297.23
2019-02-07T16:06:03.060Z,95293.13
2019-02-07T16:08:29.414Z,95298.91
2019-02-07T16:10:55.751Z,95297.28
2019-02-07T16:13:22.273Z,95301.59
2019-02-07T16:15:48.786Z,95297.97
2019-02-07T16:18:15.078Z,95293.05
2019-02-07T16:20:48.722Z,95289.85
2019-02-07T16:23:07.817Z,95291.61
2019-02-07T16:25:34.199Z,95292.23
2019-02-07T16:28:00.527Z,95295.27
2019-02-07T16:30:27.020Z,95298.70
2019-02-07T16:32:53.406Z,95301.77
2019-02-07T16:35:19.757Z,95304.44
2019-02-07T16:37:46.096Z,95308.44
2019-02-07T16:40:12.420Z,95299.74
2019-02-07T16:42:38.808Z,95312.32
2019-02-07T16:45:05.139Z,95311.13
2019-02-07T16:47:31.549Z,95313.94
2019-02-07T16:49:57.919Z,95313.37
2019-02-07T16:52:24.257Z,95312.31
2019-02-07T16:54:50.660Z,95310.57
2019-02-07T16:57:17.039Z,95312.93
2019-02-07T16:59:43.466Z,95313.64
2019-02-07T17:02:09.736Z,95317.16
2019-02-07T17:04:36.114Z,95320.80
2019-02-07T17:07:02.445Z,95318.70
2019-02-07T17:09:28.815Z,95317.50
2019-02-07T17:11:55.156Z,95323.73
2019-02-07T17:14:21.502Z,95320.46
2019-02-07T17:16:49.646Z,95322.34
2019-02-07T17:19:16.022Z,95317.40
2019-02-07T17:21:42.435Z,95325.25
2019-02-07T17:24:08.765Z,95321.05
2019-02-07T17:26:35.095Z,95326.45
2019-02-07T17:29:01.439Z,95322.33
2019-02-07T17:31:27.769Z,95320.69
2019-02-07T17:33:54.114Z,95323.98
2019-02-07T17:36:20.465Z,95320.59
2019-02-07T17:38:46.889Z,95319.89
2019-02-07T17:41:13.178Z,95325.75
2019-02-07T17:43:39.550Z,95326.22
2019-02-07T17:46:05.845Z,95326.45
2019-02-07T17:48:32.172Z,95328.33
2019-02-07T17:50:58.553Z,95324.20
2019-02-07T17:53:24.890Z,95329.50
2019-02-07T17:55:51.209Z,95319.52
2019-02-07T17:58:17.561Z,95326.63
2019-02-07T18:00:43.890Z,95326.56
2019-02-07T18:03:10.291Z,95327.59
2019-02-07T18:05:36.684Z,95327.72
2019-02-07T18:08:03.011Z,95328.52
2019-02-07T18:10:29.392Z,95334.74
2019-02-07T18:12:55.731Z,95341.66
2019-02-07T18:15:22.060Z,95340.59
2019-02-07T18:17:48.439Z,95337.66
2019-02-07T18:20:14.779Z,95344.70
2019-02-07T18:22:41.117Z,95340.47
2019-02-07T18:25:07.455Z,95339.88
2019-02-07T18:27:33.846Z,95336.94
2019-02-07T18:30:00.314Z,95346.52
2019-02-07T18:32:26.519Z,95344.31
2019-02-07T18:34:52.909Z,95343.81
2019-02-07T18:37:19.253Z,95346.16
2019-02-07T18:39:45.698Z,95349.65
2019-02-07T18:42:12.043Z,95350.01
2019-02-07T18:44:38.377Z,95347.20
2019-02-07T18:47:04.708Z,95348.91
2019-02-07T18:49:31.083Z,95347.89
2019-02-07T18:51:57.675Z,95346.45
2019-02-07T18:54:24.066Z,95350.61
2019-02-07T18:56:50.362Z,95352.03
2019-02-07T18:59:16.739Z,95357.88
2019-02-07T19:01:43.131Z,95364.55
2019-02-07T19:04:09.494Z,95366.29
2019-02-07T19:06:35.826Z,95370.39
2019-02-07T19:09:02.218Z,95371.20
2019-02-07T19:11:28.591Z,95369.91
2019-02-07T19:13:54.924Z,95364.62
2019-02-07T19:16:21.479Z,95362.36
2019-02-07T19:18:47.803Z,95362.36
2019-02-07T19:21:14.147Z,95360.13
2019-02-07T19:23:40.495Z,95366.08
2019-02-07T19:26:06.828Z,95363.17
2019-02-07T19:28:33.159Z,95366.43
2019-02-07T19:30:59.496Z,95360.36
2019-02-07T19:33:25.886Z,95357.41
2019-02-07T19:35:52.214Z,95362.18
2019-02-07T19:38:18.611Z,95363.09
2019-02-07T19:40:45.042Z,95350.83
2019-02-07T19:43:11.416Z,95354.43
2019-02-07T19:45:37.742Z,95350.30
2019-02-07T19:48:04.091Z,95345.75
2019-02-07T19:50:30.409Z,95342.48
2019-02-07T19:52:56.761Z,95351.56
2019-02-07T19:55:23.105Z,95350.64
2019-02-07T19:57:49.521Z,95347.48
2019-02-07T20:00:15.866Z,95344.45
2019-02-07T20:02:42.236Z,95340.34
2019-02-07T20:05:08.567Z,95340.78
2019-02-07T20:07:34.946Z,95342.86
2019-02-07T20:10:01.335Z,95338.45
2019-02-07T20:12:27.696Z,95338.66
2019-02-07T20:14:53.967Z,95330.11
2019-02-07T20:17:20.283Z,95331.71
2019-02-07T20:19:46.667Z,95329.28
2019-02-07T20:22:19.747Z,95319.58
2019-02-07T20:27:05.726Z,95318.50
2019-02-07T20:29:32.053Z,95320.13
2019-02-07T20:31:58.436Z,95318.97
2019-02-07T20:34:24.764Z,95316.61
2019-02-07T20:36:51.094Z,95316.48
2019-02-07T20:39:17.456Z,95321.39
2019-02-07T20:41:43.856Z,95314.59
2019-02-07T20:44:10.194Z,95315.03
2019-02-07T20:46:36.664Z,95309.42
2019-02-07T20:49:03.005Z,95305.09
2019-02-07T20:51:29.339Z,95309.78
2019-02-07T20:53:55.705Z,95304.45
2019-02-07T20:56:22.088Z,95304.77
2019-02-07T20:58:48.470Z,95299.67
2019-02-07T21:01:14.820Z,95298.48
2019-02-07T21:03:41.174Z,95299.67
2019-02-07T21:06:07.508Z,95297.78
2019-02-07T21:08:33.846Z,95299.89
2019-02-07T21:11:00.241Z,95289.81
2019-02-07T21:13:26.563Z,95285.22
2019-02-07T21:15:52.951Z,95281.03
2019-02-07T21:18:19.286Z,95275.75
2019-02-07T21:20:45.665Z,95274.59
2019-02-07T21:23:11.997Z,95276.22
2019-02-07T21:25:38.393Z,95267.88
2019-02-07T21:28:04.781Z,95277.96
2019-02-07T21:30:31.136Z,95273.03
2019-02-07T21:32:57.486Z,95275.13
2019-02-07T21:35:23.845Z,95271.87
2019-02-07T21:37:50.134Z,95274.08
2019-02-07T21:40:16.483Z,95273.62
2019-02-07T21:42:42.819Z,95270.34
2019-02-07T21:45:09.152Z,95273.84
2019-02-07T21:47:35.480Z,95275.22
2019-02-07T21:50:01.819Z,95272.52
2019-02-07T21:52:28.160Z,95270.56
2019-02-07T21:54:54.503Z,95275.34
2019-02-07T21:57:20.830Z,95273.69
2019-02-07T21:59:47.186Z,95273.53
2019-02-07T22:02:13.526Z,95275.65
2019-02-07T22:04:39.852Z,95273.45
2019-02-07T22:07:06.180Z,95274.27
2019-02-07T22:09:32.500Z,95275.41
2019-02-07T22:11:58.891Z,95278.07
2019-02-07T22:14:25.371Z,95276.54
2019-02-07T22:16:51.702Z,95280.77
2019-02-07T22:19:18.059Z,95278.29
2019-02-07T22:21:44.391Z,95279.58
2019-02-07T22:24:10.766Z,95280.52
2019-02-07T22:26:37.097Z,95279.00
2019-02-07T22:29:03.494Z,95281.81
2019-02-07T22:31:29.835Z,95281.44
2019-02-07T22:33:56.222Z,95278.88
2019-02-07T22:36:22.746Z,95273.36
2019-02-07T22:38:49.221Z,95268.43
2019-02-07T22:41:15.546Z,95270.45
2019-02-07T22:43:41.912Z,95267.14
2019-02-07T22:46:08.265Z,95266.38
2019-02-07T22:48:34.594Z,95262.00
2019-02-07T22:51:00.988Z,95259.18
2019-02-07T22:53:27.266Z,95256.85
2019-02-07T22:55:53.596Z,95262.67
2019-02-07T22:58:19.948Z,95262.21
2019-02-07T23:00:46.298Z,95270.88
2019-02-07T23:03:12.666Z,95263.62
2019-02-07T23:05:39.061Z,95263.02
2019-02-07T23:08:05.411Z,95264.08
2019-02-07T23:10:31.755Z,95262.34
2019-02-07T23:12:58.123Z,95253.64
2019-02-07T23:15:24.420Z,95263.93
2019-02-07T23:17:50.751Z,95260.66
2019-02-07T23:20:17.074Z,95263.56
2019-02-07T23:22:43.422Z,95264.52
2019-02-07T23:25:09.771Z,95260.66
2019-02-07T23:27:36.135Z,95260.98
2019-02-07T23:30:02.485Z,95257.02
2019-02-07T23:32:28.819Z,95252.20
2019-02-07T23:34:55.202Z,95248.92
2019-02-07T23:37:21.542Z,95252.78
2019-02-07T23:39:47.890Z,95253.16
2019-02-07T23:42:14.216Z,95248.31
2019-02-07T23:44:40.654Z,95247.86
2019-02-07T23:47:06.983Z,95254.66
2019-02-07T23:49:33.322Z,95250.30
2019-02-07T23:51:59.680Z,95252.84
2019-02-07T23:54:26.016Z,95245.28
2019-02-07T23:56:52.403Z,95250.06
2019-02-07T23:59:18.736Z,95241.80
